This is the latest recevied weather packets stored in our database for station/object OK1PMP-6. If no packets are shown the sender has not sent any weather packets the latest 10 day(s).
| Time | Temp. | Humidity | Pressure | Rain* | Wind** | Luminosity | Snow |
|---|---|---|---|---|---|---|---|
| 1777787773 | 13.33° C | 55% | 1021.4 hPa | 0 mm | - | 240 W/m² | - |
| 1777786873 | 10.56° C | 65% | 1021.5 hPa | 0 mm | - | 201 W/m² | - |
| 1777785974 | 8.89° C | 77% | 1021.3 hPa | 0 mm | - | 160 W/m² | - |
| 1777785061 | 7.78° C | 79% | 1021.4 hPa | 0 mm | - | 125 W/m² | - |
| 1777784161 | 5.56° C | 82% | 1021.3 hPa | 0 mm | - | 94 W/m² | - |
| 1777783262 | 4.44° C | 80% | 1021.2 hPa | 0 mm | - | 68 W/m² | - |
| 1777782361 | 4.44° C | 82% | 1021.3 hPa | 0 mm | - | 32 W/m² | - |
| 1777781460 | 4.44° C | 80% | 1021.2 hPa | 0 mm | - | 21 W/m² | - |
| 1777780561 | 3.89° C | 80% | 1021.2 hPa | 0 mm | - | 13 W/m² | - |
| 1777779665 | 3.89° C | 79% | 1021.3 hPa | - | - | - | - |
| 1777777443 | 3.89° C | 78% | 1020.8 hPa | 0 mm | - | 0 W/m² | - |
| 1777776537 | 3.89° C | 78% | 1021.1 hPa | 0 mm | - | 0 W/m² | - |
| 1777775635 | 4.44° C | 79% | 1021 hPa | 0 mm | - | 0 W/m² | - |
| 1777774734 | 4.44° C | 78% | 1021.3 hPa | 0 mm | - | 0 W/m² | - |
| 1777768947 | 4.44° C | 76% | 1021.4 hPa | 0 mm | - | 0 W/m² | - |
| 1777768548 | 5° C | 72% | 1021.5 hPa | 0 mm | - | 0 W/m² | - |
| 1777765140 | 5.56° C | 70% | 1021.7 hPa | 0 mm | - | 0 W/m² | - |
| 1777762113 | 6.67° C | 66% | 1021.9 hPa | 0 mm | - | 0 W/m² | - |
| 1777761215 | 7.78° C | 65% | 1021.7 hPa | 0 mm | - | 0 W/m² | - |
| 1777760310 | 7.78° C | 64% | 1021.9 hPa | 0 mm | - | 0 W/m² | - |
| 1777759414 | 7.78° C | 66% | 1021.8 hPa | 0 mm | - | 0 W/m² | - |
| 1777755777 | 8.89° C | 61% | 1021.8 hPa | 0 mm | - | 0 W/m² | - |
| 1777754881 | 8.89° C | 65% | 1022 hPa | 0 mm | - | 0 W/m² | - |
| 1777753072 | 10° C | 56% | 1022 hPa | 0 mm | - | 0 W/m² | - |
| 1777749467 | 12.78° C | 46% | 1021.9 hPa | 0 mm | - | 0 W/m² | - |
* Rain latest hour (hover to see other rain measurements)
** Current wind speed in m/s (hover to see current wind gust speed)